x

Buoy E01 - Central Maine Shelf (44032) Wave Buoy

7:04 - Fri 20th Jan 2017 All times are EST. -5 hours from GMT.

  • Sig Wave height 5.6ft
  • Peak Period 11s
  • Wind
    13mph, 16mph gusts
  • Sea Temp 45°f
  • Air Temp 35°f
  • Sea Pressure 1016.1mb
  • Buoy E01 - Central Maine Shelf
  • Buoy E01 - Central Maine Shelf

More Historic Weather Station data

Upgrade to MSW Pro to gain access to the past 30 days of data for over 8000 Wavebouys and Weather Stations around the globe.

Join Pro

Comparision Forecast

View Surf forecast
   
ven. 01/20 7:04 5.5ft 11s 13 16 mph 1016.1mb 45f 35f
6:04 5ft 11s 16 18 mph 1015.8mb 45f 35f
5:04 5ft 11s 13 18 mph 1015mb 45f 35f
4:04 5.5ft 11s 16 20 mph 1014.5mb 45f 36f
3:04 5.5ft 11s 20 22 mph 1014.6mb 45f 36f
2:04 7ft 11s 18 20 mph 1014.9mb 45f 37f
1:04 5ft 11s 16 20 mph 1015.7mb 45f 37f
12:04 6ft 11s 16 20 mph 1016.3mb 45f 37f
jeu. 01/19 11:04 6ft 11s 16 18 mph 1016mb 45f 37f
10:04 7.5ft 11s 13 18 mph 1015.8mb 45f 38f
9:04 6ft 11s 16 18 mph 1015.4mb 45f 38f
8:04 7.5ft 11s 16 18 mph 1014.7mb 45f 39f
7:04 5.5ft 11s 13 18 mph 1014.4mb 45f 39f
6:04 5.5ft 11s 13 18 mph 1013.9mb 45f 39f
5:04 4.5ft 8s 13 16 mph 1013.1mb 45f 38f
4:04 4.5ft 8s 11 13 mph 1012.8mb 45f 38f
3:04 4.5ft 8s 9 11 mph 1012.8mb 45f 37f
2:04 5.5ft 11s 9 11 mph 1012.9mb 45f 36f
1:04 5.5ft 8s 11 16 mph 1013.3mb 45f 33f
12:04 6ft 8s 11 16 mph 1013.5mb 45f 33f
11:04 5.5ft 8s 11 13 mph 1014.3mb 45f 33f
10:04 5.5ft 8s 7 9 mph 1015.2mb 45f 34f
9:04 6ft 8s 2 4 mph 1015.5mb 45f 33f
8:04 5ft 8s 9 13 mph 1015.5mb 45f 31f
7:04 6ft 8s 11 13 mph 1015mb 45f 32f
6:04 6ft 8s 9 11 mph 1014.9mb 45f 35f
5:04 6ft 8s 9 13 mph 1014.7mb 45f 35f
4:04 5ft 8s 9 11 mph 1015mb 45f 35f
3:04 6ft 8s 9 11 mph 1015.4mb 45f 36f
2:04 5ft 8s 13 16 mph 1015mb 45f 36f
1:04 7ft 8s 13 20 mph 1015.6mb 45f 34f
12:04 6ft 8s 16 18 mph 1016.1mb 45f 33f
mer. 01/18 11:04 7ft 8s 11 16 mph 1016.6mb 45f 35f
10:04 6.5ft 8s 13 18 mph 1017.4mb 45f 35f
9:04 7ft 8s 16 20 mph 1017.8mb 45f 34f
8:04 8ft 8s 18 22 mph 1018.4mb 45f 33f
7:04 7ft 8s 18 22 mph 1018.5mb 45f 34f
6:04 7ft 8s 20 25 mph 1018.1mb 45f 34f
5:04 8.5ft 8s 22 27 mph 1017.6mb 45f 33f
4:04 8ft 8s 25 29 mph 1017.6mb 45f 32f
3:04 8ft 8s 25 29 mph 1017.6mb 45f 33f
2:04 8.5ft 8s 22 27 mph 1017.3mb 45f 33f
1:04 8ft 8s 22 29 mph 1017mb 45f 33f
12:04 9ft 8s 22 27 mph 1017.5mb 45f 33f
11:04 8ft 8s 25 29 mph 1018mb 45f 33f
10:04 8ft 8s 25 29 mph 1018.9mb 45f 34f
9:04 7ft 6s 25 29 mph 1018.9mb 45f 35f
8:04 7ft 6s 25 29 mph 1018.7mb 45f 35f
7:04 6ft 6s 22 31 mph 1018.7mb 46f 35f
6:04 5.5ft 5s 25 29 mph 1018.5mb 46f 35f
5:04 5ft 5s 22 27 mph 1018.7mb 46f 35f
4:04 4.5ft 5s 20 25 mph 1019.2mb 46f 36f
3:04 4.5ft 5s 18 25 mph 1020mb 46f 35f
2:04 4ft 5s 18 22 mph 1020.9mb 46f 36f
1:04 4ft 5s 20 25 mph 1021.3mb 45f 37f
12:04 4ft 5s 18 22 mph 1021.8mb 46f 37f
mar. 01/17 11:04 3.5ft 4s 18 22 mph 1022.2mb 46f 37f
10:04 2.5ft 4s 18 22 mph 1023.2mb 46f 36f
9:04 2.5ft 4s 18 22 mph 1023.5mb 46f 36f
8:04 2.5ft 3s 13 18 mph 1023.9mb 46f 37f
7:04 2ft 3s 16 20 mph 1023.6mb 46f 37f
6:04 1.6ft 3s 13 18 mph 1024mb 46f 37f
5:04 2ft 3s 13 16 mph 1024.2mb 46f 37f
4:04 2ft 3s 13 18 mph 1023.5mb 46f 36f
3:04 2ft 4s 11 16 mph 1023.4mb 46f 36f
2:04 2.5ft 6s 13 16 mph 1023mb 46f 36f
1:04 2.5ft 4s 11 13 mph 1023.3mb 46f 36f
12:04 2.5ft 3s 11 16 mph 1024.1mb 46f 36f
11:04 1.6ft 3s 13 18 mph 1024mb 46f 37f
10:04 2.5ft 3s 13 18 mph 1024.8mb 46f 37f
9:04 2ft 6s 16 18 mph 1024.6mb 46f 37f
8:04 2.5ft 5s 13 18 mph 1024.1mb 46f 37f
7:04 2.5ft 5s 13 18 mph 1022.9mb 45f 38f
6:04 2.5ft 5s 11 13 mph 1021.7mb 45f 38f
5:04 3ft 5s 11 13 mph 1021.3mb 45f 38f
4:04 3.5ft 6s 13 16 mph 1021mb 45f 38f
3:04 3ft 6s 13 16 mph 1021.3mb 45f 38f
2:04 4ft 6s 9 11 mph 1020.8mb 45f 38f
1:04 4.5ft 6s 11 13 mph 1019.7mb 45f 39f
12:04 5ft 6s 16 18 mph 1019.8mb 45f 39f
lun. 01/16 11:04 5.5ft 6s 16 20 mph 1020.5mb 45f 39f
10:04 6ft 6s 20 22 mph 1020.8mb 45f 40f
9:04 6ft 6s 22 29 mph 1021.1mb 45f 41f
8:04 6.5ft 6s 25 29 mph 1021.1mb 46f 41f
7:04 6ft 6s 27 31 mph 1021.5mb 46f 41f
6:04 6ft 6s 22 27 mph 1021.7mb 46f 40f
5:04 6ft 6s 25 29 mph 1021.8mb 46f 39f
4:04 6ft 6s 25 29 mph 1021.8mb 46f 38f
3:04 6ft 5s 27 31 mph 1022.1mb 46f 38f